Terminal Aerodrome Forecast
Issued by NWS

Home | Current Version | Previous Version | Graphics & Text | Print | Product List | Glossary On
Versions: 1 2 3 4 5 6 7 8 9 10 11 12 13 14 15 16 17 18 19 20 21 22 23 24
270
FTUS43 KLOT 240259 AAA
TAFMDW
TAF AMD
KMDW 240259Z 2403/2506 05008KT P6SM VCSH BKN045 OVC070
      TEMPO 2403/2405 -RA SCT025 OVC035
     FM240500 04006KT P6SM VCSH SCT025 OVC030
     FM240800 03005KT P6SM VCSH SCT008 OVC012
     FM241900 02010KT P6SM FEW010 OVC015
     FM242200 02013KT P6SM BKN035
     FM250300 01015G24KT P6SM FEW020 BKN100=

USA.gov is the U.S. government's official web portal to all federal, state and local government web resources and services.